Grove, New Jersey
Current Conditions -  °F | °C
As of 6:53 PM on Friday 24 Oct 2014 (Local Time) from KCDW Reporting Station
Few Clouds Few Clouds  
Wind Chill: 63°   Ceiling: Unl
Heat Index: 63°   Visibility: 10mi
Dew Point: 39°   Wind: 8mph
Humidity: 41%   Direction: 320°NW
Pressure: 29.8"   Gusts: NA
Location:  40.8099°N, 74.187°W
Report Text: KCDW 242253Z 32007KT 10SM FEW055 17/04 A2980 RMK AO2 SLP097 T01720039
Loading
Personal Weather Stations






























Interactive Weather Map
Tropical Storm Tracking
New forecast layout! Learn more

10-Day Weather Forecast

Advertisements
Track Severe Weather on mobile